createdAt,value
2023-06-15T00:01:00.289Z,11.30
2023-06-15T00:06:02.747Z,10.80
2023-06-15T00:11:04.948Z,11.23
2023-06-15T00:16:07.195Z,12.60
2023-06-15T00:21:09.645Z,12.37
2023-06-15T00:26:12.401Z,11.63
2023-06-15T00:31:14.700Z,13.55
2023-06-15T00:36:18.872Z,13.25
2023-06-15T00:41:21.124Z,11.85
2023-06-15T00:46:24.056Z,12.55
2023-06-15T00:51:26.698Z,11.80
2023-06-15T00:56:31.852Z,14.52
2023-06-15T01:01:34.203Z,11.50
2023-06-15T01:06:42.900Z,11.18
2023-06-15T01:11:47.489Z,12.60
2023-06-15T01:16:53.990Z,10.93
2023-06-15T01:22:06.420Z,12.15
2023-06-15T01:27:10.615Z,12.48
2023-06-15T01:32:13.081Z,12.65
2023-06-15T01:37:15.600Z,14.45
2023-06-15T01:42:17.988Z,13.17
2023-06-15T01:47:21.019Z,11.30
2023-06-15T01:52:23.372Z,13.13
2023-06-15T01:57:34.868Z,13.98
2023-06-15T02:02:40.164Z,12.73
2023-06-15T02:07:42.563Z,14.27
2023-06-15T02:12:44.762Z,14.82
2023-06-15T02:17:47.394Z,16.52
2023-06-15T02:22:49.621Z,13.20
2023-06-15T02:27:52.428Z,13.18
2023-06-15T02:32:55.031Z,13.07
2023-06-15T02:37:57.424Z,13.20
2023-06-15T02:43:00.791Z,12.70
2023-06-15T02:48:03.071Z,13.60
2023-06-15T02:53:05.507Z,12.55
2023-06-15T02:58:08.352Z,13.67
2023-06-15T03:03:10.832Z,11.32
2023-06-15T03:08:14.334Z,12.05
2023-06-15T03:13:16.608Z,12.82
2023-06-15T03:18:18.873Z,12.25
2023-06-15T03:23:21.322Z,12.73
2023-06-15T03:28:28.954Z,13.18
2023-06-15T03:33:31.766Z,13.05
2023-06-15T03:38:34.058Z,13.05
2023-06-15T03:43:38.766Z,13.90
2023-06-15T03:48:41.344Z,12.10
2023-06-15T03:53:44.257Z,12.65
2023-06-15T03:58:46.563Z,12.25
2023-06-15T04:03:48.743Z,11.93
2023-06-15T04:08:51.023Z,13.80
2023-06-15T04:13:53.246Z,11.10
2023-06-15T04:18:55.425Z,12.43
2023-06-15T04:23:57.993Z,14.30
2023-06-15T04:29:00.358Z,10.23
2023-06-15T04:34:05.988Z,11.30
2023-06-15T04:39:08.267Z,11.93
2023-06-15T04:44:10.619Z,11.27
2023-06-15T04:49:13.374Z,10.98
2023-06-15T04:54:16.063Z,11.12
2023-06-15T04:59:18.370Z,11.38
2023-06-15T05:04:23.509Z,10.53
2023-06-15T05:09:25.978Z,13.32
2023-06-15T05:14:28.211Z,11.98
2023-06-15T05:19:34.232Z,13.40
2023-06-15T05:24:36.659Z,13.38
2023-06-15T05:29:41.260Z,10.43
2023-06-15T05:34:43.562Z,12.85
2023-06-15T05:39:47.393Z,11.82
2023-06-15T05:44:49.560Z,11.93
2023-06-15T05:49:52.125Z,10.85
2023-06-15T05:54:54.697Z,13.07
2023-06-15T05:59:56.956Z,11.35
2023-06-15T06:04:59.230Z,11.85
2023-06-15T06:10:01.494Z,14.02
2023-06-15T06:15:04.369Z,10.38
2023-06-15T06:20:07.195Z,10.70
2023-06-15T06:25:09.813Z,12.45
2023-06-15T06:30:12.339Z,12.68
2023-06-15T06:35:14.730Z,11.98
2023-06-15T06:40:17.278Z,12.40
2023-06-15T06:45:20.075Z,14.47
2023-06-15T06:50:22.458Z,11.73
2023-06-15T06:55:24.787Z,13.62
2023-06-15T07:00:28.946Z,14.80
2023-06-15T07:05:31.149Z,11.73
2023-06-15T07:10:33.381Z,13.57
2023-06-15T07:15:35.725Z,12.52
2023-06-15T07:20:37.896Z,13.00
2023-06-15T07:25:40.129Z,12.13
2023-06-15T07:30:42.657Z,12.40
2023-06-15T07:35:45.302Z,12.40
2023-06-15T07:40:47.531Z,13.82
2023-06-15T07:45:49.793Z,11.43
2023-06-15T07:50:52.034Z,10.48
2023-06-15T07:55:55.159Z,10.05
2023-06-15T08:00:57.390Z,12.90
2023-06-15T08:05:59.735Z,10.60
2023-06-15T08:11:02.882Z,10.30
2023-06-15T08:16:07.157Z,9.97
2023-06-15T08:21:09.478Z,11.30
2023-06-15T08:26:11.856Z,9.93
2023-06-15T08:31:14.087Z,10.07
2023-06-15T08:36:17.271Z,9.68
2023-06-15T08:41:23.506Z,9.57
2023-06-15T08:46:26.030Z,9.00
2023-06-15T08:51:28.264Z,9.73
2023-06-15T08:56:32.721Z,10.23
2023-06-15T09:01:40.982Z,10.93
2023-06-15T09:06:43.319Z,11.03
2023-06-15T09:11:45.637Z,12.80
2023-06-15T09:16:52.149Z,11.37
2023-06-15T09:21:55.327Z,13.10
2023-06-15T09:26:58.341Z,12.85
2023-06-15T09:32:02.798Z,13.20
2023-06-15T09:37:16.948Z,13.43
2023-06-15T09:42:20.268Z,13.73
2023-06-15T09:47:28.585Z,13.27
2023-06-15T09:52:32.465Z,15.48
2023-06-15T09:57:34.773Z,15.48
2023-06-15T10:02:39.659Z,14.00
2023-06-15T10:07:51.203Z,14.40
2023-06-15T10:12:56.366Z,14.73
2023-06-15T10:18:02.997Z,16.90
2023-06-15T10:23:11.501Z,16.27
2023-06-15T10:28:17.578Z,16.60
2023-06-15T10:33:30.910Z,17.13
2023-06-15T10:38:48.434Z,13.98
2023-06-15T10:44:00.273Z,12.45
2023-06-15T10:49:10.739Z,10.25
2023-06-15T10:54:24.027Z,11.05
2023-06-15T10:59:51.059Z,10.57
2023-06-15T11:04:53.802Z,10.95
2023-06-15T11:10:02.174Z,10.25
2023-06-15T11:15:06.683Z,10.40
2023-06-15T11:20:59.564Z,10.80
2023-06-15T11:26:03.406Z,9.43
2023-06-15T11:31:08.501Z,9.75
2023-06-15T11:36:12.023Z,10.77
2023-06-15T11:41:14.574Z,10.47
2023-06-15T11:46:19.134Z,14.25
2023-06-15T11:51:21.520Z,11.50
2023-06-15T11:56:24.243Z,11.00
2023-06-15T12:01:30.577Z,11.57
2023-06-15T12:06:34.461Z,12.82
2023-06-15T12:11:39.172Z,13.18
2023-06-15T12:16:41.491Z,12.13
2023-06-15T12:21:48.064Z,12.65
2023-06-15T12:26:55.280Z,13.20
2023-06-15T12:31:57.581Z,14.45
2023-06-15T12:37:00.106Z,15.43
2023-06-15T12:42:03.814Z,14.53
2023-06-15T12:47:06.417Z,13.62
2023-06-15T12:52:08.980Z,12.23
2023-06-15T12:57:11.198Z,11.38
2023-06-15T13:02:13.572Z,9.77
2023-06-15T13:07:25.510Z,10.70
2023-06-15T13:12:28.224Z,10.90
2023-06-15T13:17:30.815Z,10.98
2023-06-15T13:22:33.293Z,11.80
2023-06-15T13:27:39.060Z,10.68
2023-06-15T13:32:44.313Z,11.10
2023-06-15T13:37:47.608Z,11.25
2023-06-15T13:42:49.903Z,10.23
2023-06-15T13:47:53.136Z,10.27
2023-06-15T13:52:55.642Z,10.25
2023-06-15T13:57:57.956Z,10.27
2023-06-15T14:03:05.895Z,10.07
2023-06-15T14:08:08.831Z,10.95
2023-06-15T14:13:11.503Z,9.30
2023-06-15T14:18:13.865Z,9.52
2023-06-15T14:23:16.651Z,9.83
2023-06-15T14:28:18.950Z,10.60
2023-06-15T14:33:21.078Z,8.95
2023-06-15T14:38:23.375Z,9.40
2023-06-15T14:43:25.892Z,9.15
2023-06-15T14:48:28.140Z,10.03
2023-06-15T14:53:30.324Z,9.25
2023-06-15T14:58:32.626Z,9.05
2023-06-15T15:03:34.951Z,9.33
2023-06-15T15:08:37.225Z,8.40
2023-06-15T15:13:39.663Z,8.63
2023-06-15T15:18:42.076Z,9.93
2023-06-15T15:23:44.340Z,9.98
2023-06-15T15:28:46.868Z,10.20
2023-06-15T15:33:49.245Z,9.95
2023-06-15T15:38:51.435Z,8.70
2023-06-15T15:43:54.792Z,9.18
2023-06-15T15:48:57.109Z,8.32
2023-06-15T15:53:59.380Z,8.83
2023-06-15T15:59:01.679Z,8.48
2023-06-15T16:04:04.669Z,9.17
2023-06-15T16:09:07.216Z,8.93
2023-06-15T16:14:10.570Z,7.90
2023-06-15T16:19:12.815Z,10.00
2023-06-15T16:24:15.164Z,9.63
2023-06-15T16:29:17.558Z,8.70
2023-06-15T16:34:19.856Z,9.45
2023-06-15T16:39:48.237Z,8.30
2023-06-15T16:44:51.750Z,8.63
2023-06-15T16:49:55.099Z,8.38
2023-06-15T16:54:57.503Z,7.90
2023-06-15T16:59:59.817Z,7.97
2023-06-15T17:05:02.036Z,9.10
2023-06-15T17:10:05.714Z,9.87
2023-06-15T17:15:08.222Z,8.50
2023-06-15T17:20:11.186Z,9.17
2023-06-15T17:25:13.399Z,8.35
2023-06-15T17:30:15.998Z,8.60
2023-06-15T17:35:18.506Z,8.40
2023-06-15T17:40:20.975Z,8.60
2023-06-15T17:45:23.820Z,8.10
2023-06-15T17:50:26.056Z,8.73
2023-06-15T17:55:40.446Z,8.60
2023-06-15T18:00:42.946Z,9.00
2023-06-15T18:05:45.517Z,10.13
2023-06-15T18:10:48.892Z,9.13
2023-06-15T18:15:51.173Z,9.07
2023-06-15T18:20:53.669Z,10.10
2023-06-15T18:25:56.898Z,9.63
2023-06-15T18:30:59.421Z,9.77
2023-06-15T18:36:01.716Z,8.93
2023-06-15T18:41:04.040Z,10.23
2023-06-15T18:46:06.770Z,10.85
2023-06-15T18:51:09.096Z,9.70
2023-06-15T18:56:11.876Z,9.70
2023-06-15T19:01:16.188Z,10.17
2023-06-15T19:06:19.148Z,9.82
2023-06-15T19:11:21.619Z,9.75
2023-06-15T19:16:24.263Z,11.10
2023-06-15T19:21:26.717Z,10.32
2023-06-15T19:26:29.260Z,10.73
2023-06-15T19:31:32.520Z,10.45
2023-06-15T19:36:36.076Z,10.40
2023-06-15T19:41:38.483Z,8.75
2023-06-15T19:46:41.767Z,10.82
2023-06-15T19:51:44.540Z,11.07
2023-06-15T19:56:46.724Z,10.52
2023-06-15T20:01:49.049Z,8.98
2023-06-15T20:06:51.460Z,10.45
2023-06-15T20:11:53.910Z,8.80
2023-06-15T20:16:57.963Z,8.90
2023-06-15T20:22:01.369Z,10.77
2023-06-15T20:27:04.144Z,10.30
2023-06-15T20:32:07.567Z,9.40
2023-06-15T20:37:10.012Z,9.95
2023-06-15T20:42:16.220Z,12.40
2023-06-15T20:47:22.572Z,9.93
2023-06-15T20:52:25.308Z,9.13
2023-06-15T20:57:28.011Z,10.57
2023-06-15T21:02:30.336Z,9.88
2023-06-15T21:07:34.655Z,12.03
2023-06-15T21:12:40.140Z,8.98
2023-06-15T21:17:44.779Z,10.45
2023-06-15T21:22:47.002Z,9.57
2023-06-15T21:27:49.258Z,11.45
2023-06-15T21:32:51.615Z,10.43
2023-06-15T21:37:53.936Z,9.45
2023-06-15T21:42:56.383Z,10.55
2023-06-15T21:48:00.959Z,10.93
2023-06-15T21:53:04.928Z,9.75
2023-06-15T21:58:09.816Z,11.40
2023-06-15T22:03:18.473Z,10.55
2023-06-15T22:08:20.927Z,9.55
2023-06-15T22:13:23.191Z,10.57
2023-06-15T22:18:28.174Z,12.73
2023-06-15T22:23:31.634Z,11.23
2023-06-15T22:28:36.546Z,9.63
2023-06-15T22:33:40.670Z,9.50
2023-06-15T22:38:43.079Z,11.55
2023-06-15T22:43:45.673Z,11.80
2023-06-15T22:48:48.195Z,10.67
2023-06-15T22:53:50.537Z,11.43
2023-06-15T22:58:54.432Z,12.10
2023-06-15T23:03:57.232Z,11.43
2023-06-15T23:09:01.169Z,10.15
2023-06-15T23:14:04.028Z,11.37
2023-06-15T23:19:14.210Z,10.85
2023-06-15T23:24:16.797Z,10.48
2023-06-15T23:29:19.249Z,11.63
2023-06-15T23:34:21.690Z,11.30
2023-06-15T23:39:25.640Z,9.97
2023-06-15T23:44:27.965Z,11.50
2023-06-15T23:49:30.703Z,11.30
2023-06-15T23:54:33.010Z,9.88
2023-06-15T23:59:36.626Z,11.48
